Time;durP1;ratioP1;P1;durP2;ratioP2;P2;SDS_P1;SDS_P2;PMS_P1;PMS_P2;Temp;Humidity;BMP_temperature;BMP_pressure;BME280_temperature;BME280_humidity;BME280_pressure;Samples;Min_cycle;Max_cycle;Signal;HPM_P1;HPM_P2
2023/10/07 00:00:51;;;;;;;;;;;17.90;96.10;;;;;;5114097;28;20382;-70
2023/10/07 00:03:19;;;;;;;;;;;18.00;96.50;;;;;;5114230;28;19951;-72
2023/10/07 00:05:47;;;;;;;;;;;18.20;95.00;;;;;;5113785;28;19933;-71
2023/10/07 00:08:19;;;;;;;;;;;18.10;95.30;;;;;;5113845;28;19976;-71
2023/10/07 00:10:49;;;;;;;;;;;18.20;95.20;;;;;;5113822;28;19919;-72
2023/10/07 00:13:20;;;;;;;;;;;18.20;94.70;;;;;;5114134;28;19908;-72
2023/10/07 00:15:51;;;;;;;;;;;18.30;94.80;;;;;;5114015;28;20281;-69
2023/10/07 00:18:23;;;;;;;;;;;18.30;94.70;;;;;;5113869;28;20263;-71
2023/10/07 00:20:54;;;;;;;;;;;18.40;94.70;;;;;;5114023;28;19959;-68
2023/10/07 00:23:27;;;;;;;;;;;18.60;94.70;;;;;;5113858;28;20368;-69
2023/10/07 00:25:55;;;;;;;;;;;18.80;94.60;;;;;;5113660;28;19908;-68
2023/10/07 00:31:12;;;;;;;;;;;19.10;94.80;;;;;;5113008;28;19954;-70
2023/10/07 00:34:14;;;;;;;;;;;19.20;94.30;;;;;;5113507;28;19915;-69
2023/10/07 00:39:20;;;;;;;;;;;19.90;94.20;;;;;;5113571;28;19912;-70
2023/10/07 00:41:50;;;;;;;;;;;20.10;92.90;;;;;;5113457;28;19961;-67
2023/10/07 00:44:22;;;;;;;;;;;20.20;92.80;;;;;;5113465;28;19914;-69
2023/10/07 00:49:43;;;;;;;;;;;20.30;91.80;;;;;;5113300;28;19916;-66
2023/10/07 00:52:28;;;;;;;;;;;20.20;92.50;;;;;;5111988;28;20225;-68
2023/10/07 01:00:12;;;;;;;;;;;19.80;93.40;;;;;;5113126;28;19955;-69
2023/10/07 01:02:39;;;;;;;;;;;19.80;92.80;;;;;;5111117;28;20326;-71
2023/10/07 01:05:21;;;;;;;;;;;19.80;93.10;;;;;;5112610;28;19911;-71
2023/10/07 01:07:53;;;;;;;;;;;19.80;92.40;;;;;;5112367;28;20327;-69
2023/10/07 01:10:26;;;;;;;;;;;19.80;92.30;;;;;;5113067;28;19958;-70
2023/10/07 01:12:56;;;;;;;;;;;19.90;93.60;;;;;;5113315;28;19987;-67
2023/10/07 01:15:23;;;;;;;;;;;20.10;92.50;;;;;;5113259;28;19908;-69
2023/10/07 01:18:06;;;;;;;;;;;20.40;91.60;;;;;;5113135;28;19946;-68
2023/10/07 01:23:23;;;;;;;;;;;20.40;91.60;;;;;;5113193;28;19914;-68
2023/10/07 01:25:53;;;;;;;;;;;20.20;91.50;;;;;;5112985;28;20006;-68
2023/10/07 01:28:21;;;;;;;;;;;20.10;91.20;;;;;;5112953;28;20345;-70
2023/10/07 01:31:07;;;;;;;;;;;20.20;91.00;;;;;;5113054;28;19920;-70
2023/10/07 01:33:47;;;;;;;;;;;20.10;91.70;;;;;;5112971;28;19914;-68
2023/10/07 01:36:19;;;;;;;;;;;20.30;91.60;;;;;;5112917;28;19908;-70
2023/10/07 01:38:51;;;;;;;;;;;20.40;91.10;;;;;;5112986;28;19914;-69
2023/10/07 01:41:19;;;;;;;;;;;20.50;91.60;;;;;;5112960;28;19912;-69
2023/10/07 01:44:05;;;;;;;;;;;20.80;91.30;;;;;;5116482;28;19911;-69
2023/10/07 01:46:32;;;;;;;;;;;21.20;90.70;;;;;;5116639;28;19912;-69
2023/10/07 01:49:11;;;;;;;;;;;21.30;90.20;;;;;;5116845;28;19963;-69
2023/10/07 01:51:44;;;;;;;;;;;21.50;89.90;;;;;;5116822;28;19908;-70
2023/10/07 01:54:11;;;;;;;;;;;21.80;90.20;;;;;;5116551;28;19961;-71
2023/10/07 01:56:38;;;;;;;;;;;22.10;88.80;;;;;;5114437;28;19908;-67
2023/10/07 02:01:50;;;;;;;;;;;22.00;87.30;;;;;;5115168;28;20011;-68
2023/10/07 02:04:17;;;;;;;;;;;22.00;86.10;;;;;;5115715;28;19914;-68
2023/10/07 02:06:54;;;;;;;;;;;22.20;84.20;;;;;;5106975;28;19907;-69
2023/10/07 02:09:26;;;;;;;;;;;22.20;84.80;;;;;;5114390;28;19947;-71
2023/10/07 02:11:53;;;;;;;;;;;22.30;83.70;;;;;;5113599;28;20010;-68
2023/10/07 02:14:24;;;;;;;;;;;22.40;82.20;;;;;;5089891;28;19980;-72
2023/10/07 02:16:51;;;;;;;;;;;22.60;81.20;;;;;;5096515;28;19915;-70
2023/10/07 02:19:32;;;;;;;;;;;22.70;81.30;;;;;;5110156;28;19908;-71
2023/10/07 02:21:59;;;;;;;;;;;22.70;80.90;;;;;;5113542;28;19918;-70
2023/10/07 02:24:30;;;;;;;;;;;22.40;83.00;;;;;;5114319;28;19972;-71
2023/10/07 02:27:00;;;;;;;;;;;22.50;82.70;;;;;;5113745;27;19919;-72
2023/10/07 02:29:29;;;;;;;;;;;22.60;83.90;;;;;;5105092;28;19916;-72
2023/10/07 02:32:14;;;;;;;;;;;22.90;82.40;;;;;;5113854;28;19935;-71
2023/10/07 02:34:55;;;;;;;;;;;23.10;82.50;;;;;;5092971;28;19912;-71
2023/10/07 02:37:25;;;;;;;;;;;23.80;83.50;;;;;;5103331;28;19934;-72
2023/10/07 02:42:46;;;;;;;;;;;24.10;79.30;;;;;;5073569;28;20315;-72
2023/10/07 02:47:53;;;;;;;;;;;24.40;79.50;;;;;;5097827;28;19920;-70
2023/10/07 02:50:20;;;;;;;;;;;25.00;78.20;;;;;;5114371;28;20237;-73
2023/10/07 02:52:47;;;;;;;;;;;26.10;77.40;;;;;;5114705;28;19923;-69
2023/10/07 02:55:28;;;;;;;;;;;27.00;76.60;;;;;;5097677;28;19912;-71
2023/10/07 02:57:58;;;;;;;;;;;27.40;75.20;;;;;;5098549;28;19939;-68
2023/10/07 03:00:49;;;;;;;;;;;28.10;73.70;;;;;;5113559;28;19919;-68
2023/10/07 03:05:59;;;;;;;;;;;29.70;69.20;;;;;;5111331;28;19942;-70
2023/10/07 03:11:12;;;;;;;;;;;30.30;65.60;;;;;;5114571;27;19923;-70
2023/10/07 03:13:40;;;;;;;;;;;30.90;63.90;;;;;;5130182;27;19908;-71
2023/10/07 03:16:28;;;;;;;;;;;31.40;63.80;;;;;;5113271;28;20002;-71
2023/10/07 03:19:52;;;;;;;;;;;31.00;61.20;;;;;;5108024;28;20483;-70
2023/10/07 03:24:11;;;;;;;;;;;31.90;59.80;;;;;;5114236;28;19914;-68
2023/10/07 03:26:41;;;;;;;;;;;32.50;59.10;;;;;;5111569;28;19918;-71
2023/10/07 03:29:08;;;;;;;;;;;31.70;58.90;;;;;;5110447;28;19920;-66
2023/10/07 03:31:47;;;;;;;;;;;31.50;60.00;;;;;;5094319;27;19931;-68
2023/10/07 03:34:18;;;;;;;;;;;31.40;60.50;;;;;;5110837;28;19918;-69
2023/10/07 03:36:46;;;;;;;;;;;31.60;59.90;;;;;;5110376;28;20044;-69
2023/10/07 03:42:23;;;;;;;;;;;32.80;60.00;;;;;;5111982;28;19916;-71
2023/10/07 03:44:31;;;;;;;;;;;33.10;58.70;;;;;;5103514;28;19922;-72
2023/10/07 03:46:58;;;;;;;;;;;32.90;57.90;;;;;;5109484;28;19916;-73
2023/10/07 03:49:33;;;;;;;;;;;33.30;58.00;;;;;;5107473;28;19940;-70
2023/10/07 03:52:19;;;;;;;;;;;33.20;59.50;;;;;;5110908;27;19923;-70
2023/10/07 03:54:47;;;;;;;;;;;33.20;59.10;;;;;;5112389;28;20002;-74
2023/10/07 03:57:18;;;;;;;;;;;32.80;58.60;;;;;;5108373;27;20322;-65
2023/10/07 03:59:45;;;;;;;;;;;32.90;57.90;;;;;;5113125;28;20361;-71
2023/10/07 04:05:00;;;;;;;;;;;32.70;59.40;;;;;;5099345;28;20439;-69
2023/10/07 04:07:29;;;;;;;;;;;33.40;58.00;;;;;;5100728;28;19911;-69
2023/10/07 04:09:57;;;;;;;;;;;34.10;57.50;;;;;;5094691;28;19965;-71
2023/10/07 04:12:26;;;;;;;;;;;34.10;57.30;;;;;;5100608;28;19918;-71
2023/10/07 04:14:55;;;;;;;;;;;33.60;57.30;;;;;;5101806;28;19916;-69
2023/10/07 04:17:23;;;;;;;;;;;33.70;57.10;;;;;;5080725;28;19926;-71
2023/10/07 04:19:53;;;;;;;;;;;33.60;56.90;;;;;;5112731;28;19908;-70
2023/10/07 04:22:24;;;;;;;;;;;33.70;56.90;;;;;;5112864;28;19915;-68
2023/10/07 04:24:51;;;;;;;;;;;33.80;57.40;;;;;;5113366;28;19908;-68
2023/10/07 04:27:20;;;;;;;;;;;33.80;57.00;;;;;;5103910;27;19916;-67
2023/10/07 04:29:51;;;;;;;;;;;33.80;57.80;;;;;;5111843;28;19924;-68
2023/10/07 04:32:22;;;;;;;;;;;33.40;57.80;;;;;;5112549;28;20002;-69
2023/10/07 04:37:51;;;;;;;;;;;33.90;56.80;;;;;;5089333;28;19920;-68
2023/10/07 04:45:50;;;;;;;;;;;33.90;57.20;;;;;;5048008;28;20373;-69
2023/10/07 04:49:18;;;;;;;;;;;34.00;57.00;;;;;;5093579;28;19995;-69
2023/10/07 04:51:13;;;;;;;;;;;34.00;57.40;;;;;;5082350;28;19920;-69
2023/10/07 04:53:40;;;;;;;;;;;34.20;56.50;;;;;;5107920;28;19911;-72
2023/10/07 04:56:07;;;;;;;;;;;34.40;55.60;;;;;;5107944;28;20280;-71
2023/10/07 04:58:34;;;;;;;;;;;34.40;54.90;;;;;;5105567;28;19919;-68
2023/10/07 05:01:22;;;;;;;;;;;33.10;56.50;;;;;;5111789;28;20019;-71
2023/10/07 05:03:55;;;;;;;;;;;32.90;57.20;;;;;;5112166;28;19962;-68
2023/10/07 05:06:28;;;;;;;;;;;33.60;55.80;;;;;;5105262;28;20420;-67
2023/10/07 05:08:54;;;;;;;;;;;33.70;55.50;;;;;;5108315;28;19922;-67
2023/10/07 05:11:26;;;;;;;;;;;33.70;56.60;;;;;;5111152;28;20261;-67
2023/10/07 05:13:54;;;;;;;;;;;34.20;54.40;;;;;;5107376;28;20011;-69
2023/10/07 05:16:22;;;;;;;;;;;33.50;54.70;;;;;;5105618;28;19908;-66
2023/10/07 05:18:49;;;;;;;;;;;33.30;55.50;;;;;;5111224;27;20310;-67
2023/10/07 05:21:19;;;;;;;;;;;33.40;55.40;;;;;;5116008;28;19908;-68
2023/10/07 05:23:46;;;;;;;;;;;33.30;55.90;;;;;;5116185;28;19980;-66
2023/10/07 05:26:17;;;;;;;;;;;33.50;55.50;;;;;;5110124;28;19919;-67
2023/10/07 05:28:47;;;;;;;;;;;33.20;56.40;;;;;;5114758;27;19920;-66
2023/10/07 05:31:17;;;;;;;;;;;33.20;56.40;;;;;;5115087;28;19916;-67
2023/10/07 05:33:44;;;;;;;;;;;33.10;55.60;;;;;;5117670;27;19927;-69
2023/10/07 05:36:16;;;;;;;;;;;32.00;56.50;;;;;;5110927;28;20357;-68
2023/10/07 05:38:47;;;;;;;;;;;32.20;57.30;;;;;;5112389;28;20424;-69
2023/10/07 05:41:15;;;;;;;;;;;32.30;56.90;;;;;;5115370;28;19908;-70
2023/10/07 05:43:44;;;;;;;;;;;32.10;57.30;;;;;;5115459;28;19912;-69
2023/10/07 05:46:11;;;;;;;;;;;32.40;57.40;;;;;;5110701;28;19984;-71
2023/10/07 05:48:40;;;;;;;;;;;32.30;57.10;;;;;;5114423;28;19919;-70
2023/10/07 05:51:09;;;;;;;;;;;31.90;57.40;;;;;;5114966;28;19911;-68
2023/10/07 05:53:39;;;;;;;;;;;31.90;57.70;;;;;;5114771;27;20015;-69
2023/10/07 05:56:07;;;;;;;;;;;31.20;59.20;;;;;;5111823;28;20011;-69
2023/10/07 05:58:37;;;;;;;;;;;31.00;59.90;;;;;;5106157;28;19918;-69
2023/10/07 06:01:06;;;;;;;;;;;30.40;59.80;;;;;;5114559;28;20060;-71
2023/10/07 06:03:36;;;;;;;;;;;28.90;61.50;;;;;;5126299;27;19915;-69
2023/10/07 06:06:04;;;;;;;;;;;28.00;64.10;;;;;;5127082;27;20280;-71
2023/10/07 06:08:34;;;;;;;;;;;27.70;65.50;;;;;;5101934;28;19918;-71
2023/10/07 06:11:01;;;;;;;;;;;28.40;64.90;;;;;;5098556;28;20015;-71
2023/10/07 06:13:28;;;;;;;;;;;29.20;62.30;;;;;;5114654;27;19952;-71
2023/10/07 06:15:56;;;;;;;;;;;29.90;61.00;;;;;;5131833;27;19908;-72
2023/10/07 06:18:23;;;;;;;;;;;29.10;62.00;;;;;;5103735;27;19916;-72
2023/10/07 06:20:51;;;;;;;;;;;29.60;61.30;;;;;;5114550;28;19911;-72
2023/10/07 06:23:19;;;;;;;;;;;29.70;61.60;;;;;;5114574;28;19919;-74
2023/10/07 06:25:50;;;;;;;;;;;30.60;60.80;;;;;;5102473;28;20296;-72
2023/10/07 06:28:30;;;;;;;;;;;30.50;62.00;;;;;;5100185;27;19916;-71
2023/10/07 06:31:01;;;;;;;;;;;30.20;62.10;;;;;;5095818;28;20300;-72
2023/10/07 06:33:30;;;;;;;;;;;29.60;62.40;;;;;;5113518;28;20276;-73
2023/10/07 06:35:59;;;;;;;;;;;29.50;62.80;;;;;;5112065;28;19908;-74
2023/10/07 06:38:26;;;;;;;;;;;29.20;62.50;;;;;;5101093;28;19912;-70
2023/10/07 06:40:57;;;;;;;;;;;29.50;62.80;;;;;;5114205;28;20357;-71
2023/10/07 06:43:25;;;;;;;;;;;30.00;62.50;;;;;;5114630;28;19999;-67
2023/10/07 06:45:54;;;;;;;;;;;30.50;60.70;;;;;;5111567;28;19912;-68
2023/10/07 06:48:27;;;;;;;;;;;30.40;60.30;;;;;;5105020;28;19920;-73
2023/10/07 06:50:54;;;;;;;;;;;30.00;60.70;;;;;;5096032;28;19916;-71
2023/10/07 06:53:35;;;;;;;;;;;29.70;60.90;;;;;;5113401;28;19931;-67
2023/10/07 06:56:02;;;;;;;;;;;29.80;60.90;;;;;;5109089;28;19912;-70
2023/10/07 06:58:29;;;;;;;;;;;29.30;61.20;;;;;;5098013;28;19988;-71
2023/10/07 07:01:17;;;;;;;;;;;28.80;62.40;;;;;;5112099;28;20010;-70
2023/10/07 07:03:45;;;;;;;;;;;28.60;62.10;;;;;;5107919;28;19919;-68
2023/10/07 07:06:17;;;;;;;;;;;28.50;62.60;;;;;;5093724;28;20000;-68
2023/10/07 07:08:46;;;;;;;;;;;28.00;64.00;;;;;;5104596;28;19919;-70
2023/10/07 07:11:16;;;;;;;;;;;27.60;64.70;;;;;;5093855;28;19912;-69
2023/10/07 07:13:44;;;;;;;;;;;26.40;66.70;;;;;;5116773;27;20011;-74
2023/10/07 07:16:13;;;;;;;;;;;25.30;68.00;;;;;;5117134;27;19919;-69
2023/10/07 07:18:43;;;;;;;;;;;24.10;70.30;;;;;;5113694;28;19918;-68
2023/10/07 07:24:23;;;;;;;;;;;22.00;74.70;;;;;;5092303;27;19911;-73
2023/10/07 07:26:53;;;;;;;;;;;21.20;76.80;;;;;;5114102;28;19907;-73
2023/10/07 07:29:23;;;;;;;;;;;20.40;79.00;;;;;;5110568;28;19923;-70
2023/10/07 07:31:50;;;;;;;;;;;19.90;79.70;;;;;;5110820;28;20403;-72
2023/10/07 07:34:36;;;;;;;;;;;19.30;81.50;;;;;;5094650;28;19912;-71
2023/10/07 07:37:10;;;;;;;;;;;19.20;81.20;;;;;;5110057;28;19998;-71
2023/10/07 07:39:37;;;;;;;;;;;18.90;81.80;;;;;;5113012;28;19912;-72
2023/10/07 07:42:37;;;;;;;;;;;18.80;82.70;;;;;;5105610;28;20276;-71
2023/10/07 07:44:57;;;;;;;;;;;18.80;82.60;;;;;;5109540;28;20287;-70
2023/10/07 07:47:30;;;;;;;;;;;18.80;82.60;;;;;;5112132;28;20375;-74
2023/10/07 07:50:01;;;;;;;;;;;18.80;82.70;;;;;;5093616;28;19935;-70
2023/10/07 07:52:32;;;;;;;;;;;18.70;82.90;;;;;;5101301;28;19908;-70
2023/10/07 07:55:02;;;;;;;;;;;18.60;84.00;;;;;;5092647;28;19920;-75
2023/10/07 07:57:29;;;;;;;;;;;18.50;84.70;;;;;;5094745;28;20379;-72
2023/10/07 07:59:58;;;;;;;;;;;18.40;85.30;;;;;;5112751;28;20107;-74
2023/10/07 08:02:26;;;;;;;;;;;18.30;86.50;;;;;;5104347;28;20318;-72
2023/10/07 08:05:02;;;;;;;;;;;18.20;87.20;;;;;;5115229;27;19914;-73
2023/10/07 08:07:32;;;;;;;;;;;18.20;87.80;;;;;;5112336;28;19941;-70
2023/10/07 08:10:03;;;;;;;;;;;18.00;88.40;;;;;;5108557;28;20016;-70
2023/10/07 08:12:33;;;;;;;;;;;17.90;88.60;;;;;;5110728;28;19912;-73
2023/10/07 08:15:08;;;;;;;;;;;17.70;90.00;;;;;;5090450;28;19912;-70
2023/10/07 08:17:37;;;;;;;;;;;17.60;90.50;;;;;;5091072;28;20361;-68
2023/10/07 08:20:13;;;;;;;;;;;17.60;91.10;;;;;;5092342;28;19908;-71
2023/10/07 08:22:52;;;;;;;;;;;17.50;91.20;;;;;;5108470;28;19907;-73
2023/10/07 08:25:58;;;;;;;;;;;17.40;91.70;;;;;;5113211;28;19908;-71
2023/10/07 08:28:23;;;;;;;;;;;17.40;92.30;;;;;;5108660;28;19976;-72
2023/10/07 08:30:53;;;;;;;;;;;17.40;93.00;;;;;;5110696;28;20323;-71
2023/10/07 08:33:23;;;;;;;;;;;17.40;93.50;;;;;;5110945;28;20002;-72
2023/10/07 08:35:51;;;;;;;;;;;17.40;93.70;;;;;;5110952;28;20326;-68
2023/10/07 08:39:04;;;;;;;;;;;17.40;94.00;;;;;;5096056;28;19912;-71
2023/10/07 08:41:10;;;;;;;;;;;17.40;94.30;;;;;;5102582;28;19912;-73
2023/10/07 08:44:00;;;;;;;;;;;17.30;94.60;;;;;;5105036;28;19962;-69
2023/10/07 08:46:28;;;;;;;;;;;17.30;95.00;;;;;;5092219;28;20291;-70
2023/10/07 08:49:05;;;;;;;;;;;17.20;95.50;;;;;;5091646;28;19924;-73
2023/10/07 08:51:52;;;;;;;;;;;17.20;96.30;;;;;;5098641;28;19947;-71
2023/10/07 08:54:26;;;;;;;;;;;17.10;96.60;;;;;;5111877;28;19939;-74
2023/10/07 08:56:57;;;;;;;;;;;17.10;97.00;;;;;;5110928;28;19915;-74
2023/10/07 08:59:49;;;;;;;;;;;17.20;97.60;;;;;;5105610;28;19938;-73
2023/10/07 09:02:26;;;;;;;;;;;17.20;98.00;;;;;;5107975;28;19956;-69
2023/10/07 09:04:57;;;;;;;;;;;17.20;98.30;;;;;;5107371;28;20276;-72
2023/10/07 09:07:31;;;;;;;;;;;17.40;98.40;;;;;;5111657;28;19951;-68
2023/10/07 09:10:13;;;;;;;;;;;17.30;98.60;;;;;;5087217;28;19978;-70
2023/10/07 09:12:49;;;;;;;;;;;17.20;98.60;;;;;;5091676;28;20011;-69
2023/10/07 09:15:21;;;;;;;;;;;17.20;98.80;;;;;;5105269;28;19934;-69
2023/10/07 09:17:48;;;;;;;;;;;17.20;99.00;;;;;;5103436;28;20387;-68
2023/10/07 09:20:18;;;;;;;;;;;17.10;99.10;;;;;;5112442;28;19980;-74
2023/10/07 09:22:53;;;;;;;;;;;17.10;99.20;;;;;;5112325;28;19915;-73
2023/10/07 09:25:31;;;;;;;;;;;17.00;99.30;;;;;;5106918;28;19919;-70
2023/10/07 09:27:58;;;;;;;;;;;16.90;99.70;;;;;;5074854;28;19908;-73
2023/10/07 09:30:36;;;;;;;;;;;16.90;99.90;;;;;;5111130;28;19989;-72
2023/10/07 09:33:06;;;;;;;;;;;16.90;99.90;;;;;;5111537;28;20011;-68
2023/10/07 09:35:35;;;;;;;;;;;16.90;99.90;;;;;;5090663;28;20385;-68
2023/10/07 09:38:02;;;;;;;;;;;16.90;99.90;;;;;;5101909;28;19912;-73
2023/10/07 09:43:19;;;;;;;;;;;16.80;99.90;;;;;;5096392;28;20330;-74
2023/10/07 09:45:52;;;;;;;;;;;16.70;99.90;;;;;;5100048;28;19916;-71
2023/10/07 09:48:23;;;;;;;;;;;16.60;99.90;;;;;;5095625;28;19927;-73
2023/10/07 09:50:56;;;;;;;;;;;16.50;99.90;;;;;;5111681;28;20334;-67
2023/10/07 09:53:42;;;;;;;;;;;16.50;99.90;;;;;;5111921;28;19915;-72
2023/10/07 09:56:21;;;;;;;;;;;16.40;99.90;;;;;;5106447;28;19912;-70
2023/10/07 09:58:47;;;;;;;;;;;16.40;99.90;;;;;;5116022;28;20288;-69
2023/10/07 10:01:38;;;;;;;;;;;16.30;99.90;;;;;;5099801;28;19908;-69
2023/10/07 10:04:21;;;;;;;;;;;16.30;99.90;;;;;;5100467;27;20360;-69
2023/10/07 10:06:57;;;;;;;;;;;16.40;99.90;;;;;;5098027;28;19916;-68
2023/10/07 10:09:27;;;;;;;;;;;16.30;99.90;;;;;;5106586;28;19924;-69
2023/10/07 10:12:49;;;;;;;;;;;16.30;99.90;;;;;;5107232;28;19915;-69
2023/10/07 10:14:56;;;;;;;;;;;16.30;99.90;;;;;;5100329;28;20364;-74
2023/10/07 10:17:53;;;;;;;;;;;16.30;99.90;;;;;;5101528;28;19912;-69
2023/10/07 10:20:27;;;;;;;;;;;16.30;99.90;;;;;;5082446;28;19913;-71
2023/10/07 10:22:57;;;;;;;;;;;16.30;99.90;;;;;;5096362;28;19915;-69
2023/10/07 10:25:36;;;;;;;;;;;16.20;99.90;;;;;;5109672;27;20368;-67
2023/10/07 10:28:10;;;;;;;;;;;16.20;99.90;;;;;;5096663;28;19909;-71
2023/10/07 10:30:46;;;;;;;;;;;16.30;99.90;;;;;;5113891;27;19920;-69
2023/10/07 10:33:19;;;;;;;;;;;16.30;99.90;;;;;;5114920;28;19912;-68
2023/10/07 10:35:51;;;;;;;;;;;16.30;99.90;;;;;;5097609;27;19967;-72
2023/10/07 10:38:19;;;;;;;;;;;16.30;99.90;;;;;;5113188;28;19912;-69
2023/10/07 10:40:46;;;;;;;;;;;16.30;99.90;;;;;;5114845;28;20368;-68
2023/10/07 10:43:23;;;;;;;;;;;16.20;99.90;;;;;;5114790;28;19973;-68
2023/10/07 10:46:06;;;;;;;;;;;16.20;99.90;;;;;;5103460;27;19931;-68
2023/10/07 10:48:39;;;;;;;;;;;16.20;99.90;;;;;;5099571;28;19931;-74
2023/10/07 10:51:06;;;;;;;;;;;16.20;99.90;;;;;;5105940;28;19975;-71
2023/10/07 10:53:33;;;;;;;;;;;16.10;99.90;;;;;;5093993;28;20315;-69
2023/10/07 10:56:01;;;;;;;;;;;16.10;99.90;;;;;;5102998;28;19918;-72
2023/10/07 10:58:29;;;;;;;;;;;16.00;99.90;;;;;;5113916;28;19908;-67
2023/10/07 11:00:56;;;;;;;;;;;16.00;99.90;;;;;;5114150;27;19915;-68
2023/10/07 11:03:23;;;;;;;;;;;15.90;99.90;;;;;;5114418;28;19907;-72
2023/10/07 11:05:53;;;;;;;;;;;15.90;99.90;;;;;;5104223;28;19913;-76
2023/10/07 11:08:33;;;;;;;;;;;15.90;99.90;;;;;;5098294;28;19961;-76
2023/10/07 11:11:00;;;;;;;;;;;15.80;99.90;;;;;;5096018;28;19923;-76
2023/10/07 11:13:29;;;;;;;;;;;15.80;99.90;;;;;;5113533;28;19918;-72
2023/10/07 11:16:09;;;;;;;;;;;15.70;99.90;;;;;;5111273;27;19939;-73
2023/10/07 11:18:41;;;;;;;;;;;15.70;99.90;;;;;;5099982;28;19915;-72
2023/10/07 11:21:21;;;;;;;;;;;15.70;99.90;;;;;;5113887;28;19916;-69
2023/10/07 11:23:54;;;;;;;;;;;15.70;99.90;;;;;;5113381;28;19916;-69
2023/10/07 11:26:23;;;;;;;;;;;15.60;99.90;;;;;;5097334;28;20001;-72
2023/10/07 11:28:51;;;;;;;;;;;15.50;99.90;;;;;;5112949;28;20372;-72
2023/10/07 11:31:27;;;;;;;;;;;15.50;99.90;;;;;;5093009;28;19998;-72
2023/10/07 11:33:54;;;;;;;;;;;15.50;99.90;;;;;;5075256;28;20014;-73
2023/10/07 11:36:20;;;;;;;;;;;15.50;99.90;;;;;;5098505;28;19913;-69
2023/10/07 11:38:47;;;;;;;;;;;15.40;99.90;;;;;;5101916;28;19919;-67
2023/10/07 11:41:16;;;;;;;;;;;15.40;99.90;;;;;;5113726;28;19922;-69
2023/10/07 11:43:52;;;;;;;;;;;15.40;99.90;;;;;;5113605;28;19912;-66
2023/10/07 11:46:20;;;;;;;;;;;15.40;99.90;;;;;;5099544;27;19919;-72
2023/10/07 11:48:46;;;;;;;;;;;15.30;99.90;;;;;;5100784;28;19926;-69
2023/10/07 11:51:13;;;;;;;;;;;15.30;99.90;;;;;;5099538;28;20010;-77
2023/10/07 11:53:41;;;;;;;;;;;15.30;99.90;;;;;;5103391;28;19919;-73
2023/10/07 11:56:11;;;;;;;;;;;15.20;99.90;;;;;;5111505;28;19907;-76
2023/10/07 11:58:38;;;;;;;;;;;15.20;99.90;;;;;;5109428;28;19919;-73
2023/10/07 12:01:07;;;;;;;;;;;15.20;99.90;;;;;;5112429;28;19908;-68
2023/10/07 12:03:34;;;;;;;;;;;15.10;99.90;;;;;;5101850;28;19916;-72
2023/10/07 12:06:01;;;;;;;;;;;15.10;99.90;;;;;;5091488;28;20353;-70
2023/10/07 12:08:29;;;;;;;;;;;15.00;99.90;;;;;;5091379;28;19953;-71
2023/10/07 12:10:56;;;;;;;;;;;15.00;99.90;;;;;;5091588;28;20300;-75
2023/10/07 12:13:23;;;;;;;;;;;15.00;99.90;;;;;;5093698;28;19912;-75
2023/10/07 12:15:50;;;;;;;;;;;15.00;99.90;;;;;;5113364;28;19908;-75
2023/10/07 12:18:19;;;;;;;;;;;15.00;99.90;;;;;;5100931;28;19987;-73
2023/10/07 12:20:46;;;;;;;;;;;14.90;99.90;;;;;;5092243;28;19909;-71
2023/10/07 12:23:12;;;;;;;;;;;15.00;99.90;;;;;;5092768;28;19956;-72
2023/10/07 12:25:41;;;;;;;;;;;15.00;99.90;;;;;;5105920;28;19912;-71
2023/10/07 12:28:08;;;;;;;;;;;15.10;99.90;;;;;;5112636;28;19907;-74
2023/10/07 12:30:35;;;;;;;;;;;14.90;99.90;;;;;;5113067;28;20360;-72
2023/10/07 12:33:02;;;;;;;;;;;15.00;99.90;;;;;;5113302;28;19944;-74
2023/10/07 12:35:34;;;;;;;;;;;15.00;99.90;;;;;;5094445;28;19953;-76
2023/10/07 12:38:01;;;;;;;;;;;15.00;99.90;;;;;;5112734;28;19943;-73
2023/10/07 12:40:30;;;;;;;;;;;15.10;99.90;;;;;;5111691;28;19912;-69
2023/10/07 12:42:57;;;;;;;;;;;15.00;99.90;;;;;;5112469;28;19911;-70
2023/10/07 12:45:24;;;;;;;;;;;15.00;99.90;;;;;;5111962;28;19928;-74
2023/10/07 12:47:51;;;;;;;;;;;15.10;99.90;;;;;;5112693;28;20257;-71
2023/10/07 12:50:28;;;;;;;;;;;15.10;99.90;;;;;;5112987;28;19915;-70
2023/10/07 12:52:56;;;;;;;;;;;15.00;99.90;;;;;;5113024;28;19953;-73
2023/10/07 12:55:23;;;;;;;;;;;15.00;99.90;;;;;;5113364;28;19915;-70
2023/10/07 12:57:50;;;;;;;;;;;15.00;99.90;;;;;;5113815;28;19912;-71
2023/10/07 13:00:23;;;;;;;;;;;14.90;99.90;;;;;;5112630;28;19969;-73
2023/10/07 13:02:55;;;;;;;;;;;14.90;99.90;;;;;;5112987;28;20040;-69
2023/10/07 13:05:23;;;;;;;;;;;14.80;99.90;;;;;;5109023;28;19916;-68
2023/10/07 13:07:50;;;;;;;;;;;14.80;99.90;;;;;;5092333;28;20010;-68
2023/10/07 13:10:17;;;;;;;;;;;14.70;99.90;;;;;;5092467;28;19917;-70
2023/10/07 13:12:45;;;;;;;;;;;14.70;99.90;;;;;;5092828;28;20463;-72
2023/10/07 13:15:28;;;;;;;;;;;14.70;99.90;;;;;;5074317;28;19923;-69
2023/10/07 13:17:58;;;;;;;;;;;14.60;99.90;;;;;;5092305;28;20249;-67
2023/10/07 13:20:26;;;;;;;;;;;14.70;99.90;;;;;;5092134;28;20431;-68
2023/10/07 13:22:57;;;;;;;;;;;14.70;99.90;;;;;;5108589;28;19915;-73
2023/10/07 13:25:26;;;;;;;;;;;14.70;99.90;;;;;;5112367;28;20257;-69
2023/10/07 13:27:55;;;;;;;;;;;14.80;99.90;;;;;;5112528;28;20280;-67
2023/10/07 13:30:24;;;;;;;;;;;14.90;99.90;;;;;;5112457;28;20430;-70
2023/10/07 13:32:54;;;;;;;;;;;14.90;99.90;;;;;;5112590;28;19915;-71
2023/10/07 13:35:21;;;;;;;;;;;14.80;99.90;;;;;;5102372;28;19950;-69
2023/10/07 13:37:52;;;;;;;;;;;14.90;99.90;;;;;;5113237;28;19914;-72
2023/10/07 13:40:19;;;;;;;;;;;15.00;99.90;;;;;;5116394;28;20374;-74
2023/10/07 13:42:50;;;;;;;;;;;15.00;99.90;;;;;;5118476;28;19908;-74
2023/10/07 13:45:29;;;;;;;;;;;15.00;99.90;;;;;;5118461;28;19914;-69
2023/10/07 13:47:56;;;;;;;;;;;15.00;99.90;;;;;;5122199;28;19927;-70
2023/10/07 13:50:27;;;;;;;;;;;15.00;99.90;;;;;;5129478;28;20014;-69
2023/10/07 13:58:14;;;;;;;;;;;15.10;99.90;;;;;;5095933;28;20015;-69
2023/10/07 14:00:54;;;;;;;;;;;15.10;99.90;;;;;;5096028;28;19908;-72
2023/10/07 14:03:23;;;;;;;;;;;15.10;99.90;;;;;;5095474;28;19908;-75
2023/10/07 14:05:58;;;;;;;;;;;15.20;99.90;;;;;;5111398;28;20356;-73
2023/10/07 14:08:36;;;;;;;;;;;15.20;99.90;;;;;;5115837;28;19968;-71
2023/10/07 14:11:04;;;;;;;;;;;15.10;99.90;;;;;;5115980;28;20406;-72
2023/10/07 14:13:35;;;;;;;;;;;15.20;99.90;;;;;;5105648;28;19912;-72
2023/10/07 14:16:07;;;;;;;;;;;15.10;99.90;;;;;;5095346;28;19919;-71
2023/10/07 14:18:37;;;;;;;;;;;15.00;99.90;;;;;;5095337;28;19908;-73
2023/10/07 14:21:07;;;;;;;;;;;15.00;99.90;;;;;;5086012;28;19951;-74
2023/10/07 14:23:35;;;;;;;;;;;14.90;99.90;;;;;;5115487;28;20398;-69
2023/10/07 14:26:08;;;;;;;;;;;14.90;99.90;;;;;;5115788;28;19908;-72
2023/10/07 14:28:44;;;;;;;;;;;14.80;99.90;;;;;;5105560;28;19908;-70
2023/10/07 14:31:11;;;;;;;;;;;14.80;99.90;;;;;;5110232;28;20323;-68
2023/10/07 14:33:38;;;;;;;;;;;14.80;99.90;;;;;;5115236;28;20018;-70
2023/10/07 14:36:14;;;;;;;;;;;14.80;99.90;;;;;;5115200;28;19911;-70
2023/10/07 14:38:42;;;;;;;;;;;14.80;99.90;;;;;;5115271;28;19907;-73
2023/10/07 14:41:09;;;;;;;;;;;14.90;99.90;;;;;;5115451;28;19915;-74
2023/10/07 14:43:36;;;;;;;;;;;14.90;99.90;;;;;;5115387;28;19908;-73
2023/10/07 14:46:11;;;;;;;;;;;14.90;99.90;;;;;;5115216;28;19916;-71
2023/10/07 14:48:38;;;;;;;;;;;15.00;99.90;;;;;;5105396;28;19927;-71
2023/10/07 14:51:05;;;;;;;;;;;14.90;99.90;;;;;;5093251;28;19923;-70
2023/10/07 14:53:33;;;;;;;;;;;14.90;99.90;;;;;;5094485;28;19908;-70
2023/10/07 14:56:01;;;;;;;;;;;14.90;99.90;;;;;;5112824;28;19919;-72
2023/10/07 14:58:30;;;;;;;;;;;14.90;99.90;;;;;;5099162;28;19955;-73
2023/10/07 15:00:56;;;;;;;;;;;15.00;99.90;;;;;;5094614;28;19948;-74
2023/10/07 15:03:24;;;;;;;;;;;14.90;99.90;;;;;;5094787;28;19958;-73
2023/10/07 15:05:55;;;;;;;;;;;14.90;99.90;;;;;;5091411;28;20354;-69
2023/10/07 15:08:23;;;;;;;;;;;15.00;99.90;;;;;;5107484;28;19943;-76
2023/10/07 15:10:50;;;;;;;;;;;15.00;99.90;;;;;;5093924;28;19927;-73
2023/10/07 15:13:17;;;;;;;;;;;15.00;99.90;;;;;;5094371;28;19908;-70
2023/10/07 15:15:49;;;;;;;;;;;15.00;99.90;;;;;;5093948;28;19908;-70
2023/10/07 15:18:18;;;;;;;;;;;15.00;99.90;;;;;;5094418;28;19999;-72
2023/10/07 15:20:45;;;;;;;;;;;15.00;99.90;;;;;;5103719;28;19958;-65
2023/10/07 15:23:12;;;;;;;;;;;15.00;99.90;;;;;;5114624;28;19907;-66
2023/10/07 15:25:45;;;;;;;;;;;14.90;99.90;;;;;;5114532;28;19911;-68
2023/10/07 15:28:16;;;;;;;;;;;14.90;99.90;;;;;;5112960;28;19911;-71
2023/10/07 15:30:45;;;;;;;;;;;14.90;99.90;;;;;;5114422;28;19968;-69
2023/10/07 15:33:14;;;;;;;;;;;14.90;99.90;;;;;;5114529;28;19907;-68
2023/10/07 15:35:43;;;;;;;;;;;14.90;99.90;;;;;;5114823;28;19955;-71
2023/10/07 15:38:13;;;;;;;;;;;14.90;99.90;;;;;;5113932;28;19961;-72